Time;durP1;ratioP1;P1;durP2;ratioP2;P2;SDS_P1;SDS_P2;PMS_P1;PMS_P2;Temp;Humidity;BMP_temperature;BMP_pressure;BME280_temperature;BME280_humidity;BME280_pressure;Samples;Min_cycle;Max_cycle;Signal;HPM_P1;HPM_P2
2023/12/26 00:00:26;;;;;;;8.10;3.60;;;;;;;6.96;80.22;99114.98;131627;1250;107644;-81
2023/12/26 00:03:51;;;;;;;9.90;4.10;;;;;;;6.89;80.02;99112.83;131206;1253;110379;-80
2023/12/26 00:06:57;;;;;;;10.20;4.30;;;;;;;6.83;80.47;99117.03;131198;1250;107509;-80
2023/12/26 00:10:03;;;;;;;6.50;3.50;;;;;;;6.77;80.52;99114.13;131125;1254;108706;-79
2023/12/26 00:13:08;;;;;;;7.90;2.90;;;;;;;6.73;80.59;99118.41;131188;1254;106546;-80
2023/12/26 00:16:14;;;;;;;7.20;2.90;;;;;;;6.72;80.83;99113.42;131232;1251;107802;-81
2023/12/26 00:19:20;;;;;;;5.70;2.60;;;;;;;6.74;80.71;99113.54;131328;1251;107761;-80
2023/12/26 00:22:25;;;;;;;6.00;2.50;;;;;;;6.78;80.36;99112.46;131155;1253;109045;-80
2023/12/26 00:25:31;;;;;;;4.40;1.90;;;;;;;6.80;80.36;99112.34;131092;1263;108690;-79
2023/12/26 00:28:36;;;;;;;6.20;1.90;;;;;;;6.81;80.06;99112.81;131052;1251;107381;-80
2023/12/26 00:31:43;;;;;;;7.60;2.40;;;;;;;6.78;79.96;99126.06;131179;1254;107407;-79
2023/12/26 00:34:49;;;;;;;5.50;2.00;;;;;;;6.75;79.64;99132.17;131219;1250;106785;-79
2023/12/26 00:37:55;;;;;;;5.30;2.20;;;;;;;6.74;79.74;99131.05;131214;1250;106384;-79
2023/12/26 00:41:01;;;;;;;12.00;5.40;;;;;;;6.69;79.54;99122.45;131132;1250;107512;-78
2023/12/26 00:44:06;;;;;;;11.30;4.00;;;;;;;6.68;79.54;99115.86;131096;1254;107267;-79
2023/12/26 00:47:12;;;;;;;6.80;2.20;;;;;;;6.74;79.53;99117.09;131011;1254;108115;-79
2023/12/26 00:50:18;;;;;;;5.40;2.00;;;;;;;6.81;79.23;99115.61;131143;1253;108627;-79
2023/12/26 00:53:24;;;;;;;7.60;2.30;;;;;;;6.88;79.41;99116.17;131114;1252;106656;-78
2023/12/26 00:56:30;;;;;;;6.30;2.30;;;;;;;6.93;79.44;99111.95;131098;1255;107723;-80
2023/12/26 00:59:36;;;;;;;6.90;1.90;;;;;;;6.98;79.24;99104.89;131158;1250;108696;-81
2023/12/26 01:02:42;;;;;;;6.10;1.90;;;;;;;7.02;79.39;99106.79;131176;1251;108694;-80
2023/12/26 01:05:48;;;;;;;5.40;2.10;;;;;;;7.04;79.35;99104.75;131061;1251;108562;-79
2023/12/26 01:08:53;;;;;;;4.90;1.80;;;;;;;7.05;79.31;99109.66;131289;1251;107747;-82
2023/12/26 01:11:59;;;;;;;4.50;2.00;;;;;;;7.03;79.25;99117.30;131210;1256;108729;-80
2023/12/26 01:15:05;;;;;;;4.10;1.70;;;;;;;7.02;79.33;99121.22;131220;1251;106594;-79
2023/12/26 01:18:11;;;;;;;4.90;1.90;;;;;;;7.04;79.45;99123.02;131084;1253;107675;-82
2023/12/26 01:21:17;;;;;;;17.40;10.60;;;;;;;7.09;79.51;99125.33;131227;1253;107422;-79
2023/12/26 01:24:22;;;;;;;37.60;15.70;;;;;;;7.14;79.49;99126.05;131086;1253;107501;-80
2023/12/26 01:27:28;;;;;;;19.60;7.90;;;;;;;7.17;79.59;99122.41;131053;1251;107474;-79
2023/12/26 01:30:35;;;;;;;9.30;3.60;;;;;;;7.17;79.43;99118.33;131124;1253;108634;-80
2023/12/26 01:33:41;;;;;;;7.00;2.80;;;;;;;7.17;79.54;99114.25;131038;1254;107397;-79
2023/12/26 01:36:47;;;;;;;7.40;2.20;;;;;;;7.16;79.44;99115.39;131386;1253;106762;-81
2023/12/26 01:39:53;;;;;;;4.10;2.10;;;;;;;7.16;79.47;99129.77;131204;1251;106527;-79
2023/12/26 01:42:59;;;;;;;6.90;2.40;;;;;;;7.15;79.48;99131.02;131066;1250;108661;-79
2023/12/26 01:46:05;;;;;;;3.60;1.90;;;;;;;7.15;79.51;99128.38;131186;1254;107742;-80
2023/12/26 01:49:12;;;;;;;10.60;5.30;;;;;;;7.14;79.46;99114.19;131197;1251;108708;-79
2023/12/26 01:52:21;;;;;;;30.10;14.90;;;;;;;7.12;79.50;99102.27;131297;1250;107907;-80
2023/12/26 01:55:27;;;;;;;19.60;10.20;;;;;;;7.11;79.61;99098.11;131213;1253;106488;-79
2023/12/26 01:58:32;;;;;;;10.90;5.90;;;;;;;7.12;79.68;99086.11;131123;1251;108779;-79
2023/12/26 02:01:38;;;;;;;10.10;5.90;;;;;;;7.14;79.73;99085.27;131030;1255;105850;-79
2023/12/26 02:04:44;;;;;;;5.50;3.30;;;;;;;7.14;79.61;99079.05;131161;1253;108556;-80
2023/12/26 02:07:50;;;;;;;9.40;5.80;;;;;;;7.12;79.78;99080.62;131200;1253;105711;-80
2023/12/26 02:10:55;;;;;;;10.90;6.00;;;;;;;7.11;79.83;99076.73;131149;1251;107678;-81
2023/12/26 02:14:01;;;;;;;9.60;5.30;;;;;;;7.07;79.70;99069.48;131118;1254;107395;-80
2023/12/26 02:17:13;;;;;;;6.60;3.40;;;;;;;7.03;79.61;99067.57;131125;1253;106912;-80
2023/12/26 02:20:19;;;;;;;7.60;3.30;;;;;;;6.99;79.96;99064.60;131194;1254;108129;-79
2023/12/26 02:23:28;;;;;;;4.80;2.50;;;;;;;6.96;79.67;99065.53;131072;1253;108772;-80
2023/12/26 02:26:39;;;;;;;4.80;2.00;;;;;;;6.92;79.82;99072.04;131130;1251;106463;-80
2023/12/26 02:29:47;;;;;;;4.30;2.20;;;;;;;6.91;79.97;99081.35;131031;1257;106487;-79
2023/12/26 02:32:54;;;;;;;7.20;2.60;;;;;;;6.95;80.14;99074.61;131217;1253;108729;-80
2023/12/26 02:36:01;;;;;;;7.90;2.70;;;;;;;6.99;80.59;99061.63;131198;1250;106552;-80
2023/12/26 02:39:09;;;;;;;5.80;2.90;;;;;;;7.04;80.82;99052.44;131234;1251;106687;-80
2023/12/26 02:42:17;;;;;;;5.80;2.90;;;;;;;7.08;80.86;99052.73;131278;1253;107709;-80
2023/12/26 02:45:23;;;;;;;6.20;3.30;;;;;;;7.12;80.96;99055.37;131194;1251;107049;-81
2023/12/26 02:48:28;;;;;;;4.50;3.00;;;;;;;7.14;81.28;99044.48;131233;1250;107704;-79
2023/12/26 02:51:35;;;;;;;7.40;3.40;;;;;;;7.16;81.44;99040.09;131057;1252;106111;-80
2023/12/26 02:54:41;;;;;;;4.50;2.90;;;;;;;7.18;81.63;99037.61;130986;1250;106255;-80
2023/12/26 02:57:46;;;;;;;5.20;2.90;;;;;;;7.20;81.64;99031.00;131069;1250;106362;-79
2023/12/26 03:00:52;;;;;;;5.20;3.00;;;;;;;7.24;82.02;99023.48;131137;1253;108751;-79
2023/12/26 03:03:58;;;;;;;6.80;3.10;;;;;;;7.30;82.23;99016.33;131171;1253;106167;-80
2023/12/26 03:07:04;;;;;;;6.40;3.20;;;;;;;7.36;82.24;99005.62;131202;1255;106456;-80
2023/12/26 03:10:10;;;;;;;6.50;3.60;;;;;;;7.41;82.44;98997.11;131110;1253;107409;-80
2023/12/26 03:13:16;;;;;;;5.70;3.50;;;;;;;7.44;82.78;98998.15;131058;1255;107440;-79
2023/12/26 03:16:21;;;;;;;7.50;4.00;;;;;;;7.46;82.82;98996.74;131107;1253;107565;-78
2023/12/26 03:19:29;;;;;;;5.90;3.40;;;;;;;7.48;83.00;98986.04;131148;1253;107253;-79
2023/12/26 03:22:35;;;;;;;6.80;2.90;;;;;;;7.52;83.32;98984.83;130964;1251;106430;-82
2023/12/26 03:25:41;;;;;;;5.30;3.00;;;;;;;7.56;83.46;98986.14;131166;1249;106291;-80
2023/12/26 03:28:46;;;;;;;6.00;3.30;;;;;;;7.62;83.66;98982.63;131229;1253;108641;-80
2023/12/26 03:31:52;;;;;;;6.30;3.60;;;;;;;7.70;83.91;98978.41;131081;1253;107714;-81
2023/12/26 03:34:58;;;;;;;5.60;3.00;;;;;;;7.75;83.91;98976.82;131167;1250;106999;-80
2023/12/26 03:38:03;;;;;;;5.30;3.60;;;;;;;7.79;84.25;98972.65;131165;1250;108750;-79
2023/12/26 03:41:09;;;;;;;4.10;2.60;;;;;;;7.80;84.38;98969.70;131077;1253;106548;-80
2023/12/26 03:44:15;;;;;;;6.50;2.40;;;;;;;7.81;84.57;98966.73;131115;1255;108466;-81
2023/12/26 03:47:20;;;;;;;3.70;2.50;;;;;;;7.84;84.92;98959.73;131181;1253;106504;-80
2023/12/26 03:50:26;;;;;;;4.90;2.70;;;;;;;7.89;85.22;98951.92;131071;1251;107659;-80
2023/12/26 03:53:32;;;;;;;4.40;2.50;;;;;;;7.95;85.23;98941.59;131096;1250;107822;-80
2023/12/26 03:56:38;;;;;;;4.70;2.60;;;;;;;7.98;85.26;98937.63;131130;1254;108449;-79
2023/12/26 03:59:43;;;;;;;3.60;2.20;;;;;;;7.98;85.56;98941.55;131105;1254;108629;-80
2023/12/26 04:02:49;;;;;;;4.40;2.00;;;;;;;7.99;85.73;98943.70;131090;1251;108395;-81
2023/12/26 04:05:55;;;;;;;4.70;2.20;;;;;;;8.01;85.87;98941.55;131138;1256;108400;-79
2023/12/26 04:09:01;;;;;;;3.80;2.30;;;;;;;8.05;86.22;98936.85;131016;1265;107870;-79
2023/12/26 04:12:09;;;;;;;4.70;2.40;;;;;;;8.10;86.29;98929.56;131066;1251;106816;-79
2023/12/26 04:15:15;;;;;;;2.60;2.10;;;;;;;8.12;86.37;98926.41;131156;1254;108722;-79
2023/12/26 04:18:21;;;;;;;3.50;2.10;;;;;;;8.13;86.44;98919.91;131012;1250;107773;-79
2023/12/26 04:21:26;;;;;;;3.20;1.90;;;;;;;8.12;86.59;98915.26;130946;1253;107579;-79
2023/12/26 04:24:32;;;;;;;3.50;1.60;;;;;;;8.13;86.67;98910.70;130967;1253;107525;-79
2023/12/26 04:27:38;;;;;;;3.60;2.30;;;;;;;8.14;86.89;98906.61;130897;1254;106403;-80
2023/12/26 04:30:44;;;;;;;3.20;1.70;;;;;;;8.17;87.09;98901.20;130969;1253;107084;-79
2023/12/26 04:33:49;;;;;;;2.20;1.70;;;;;;;8.21;87.05;98896.45;130941;1254;108739;-80
2023/12/26 04:36:56;;;;;;;4.00;2.00;;;;;;;8.22;86.99;98897.05;131026;1251;107730;-79
2023/12/26 04:40:02;;;;;;;2.70;1.60;;;;;;;8.21;87.12;98892.77;131010;1253;108694;-81
2023/12/26 04:43:08;;;;;;;2.80;1.70;;;;;;;8.19;87.23;98889.59;131004;1256;107600;-81
2023/12/26 04:46:21;;;;;;;3.10;1.60;;;;;;;8.20;87.30;98884.71;131036;1250;108966;-82
2023/12/26 04:49:28;;;;;;;3.90;2.00;;;;;;;8.24;87.38;98882.33;131198;1254;108668;-80
2023/12/26 04:52:34;;;;;;;3.40;1.90;;;;;;;8.27;87.38;98878.64;131005;1255;108521;-80
2023/12/26 04:55:39;;;;;;;4.00;2.00;;;;;;;8.30;87.67;98872.33;131089;1250;107626;-79
2023/12/26 04:58:46;;;;;;;3.20;1.80;;;;;;;8.30;87.73;98870.63;130993;1250;108638;-79
2023/12/26 05:01:52;;;;;;;2.80;1.70;;;;;;;8.29;87.81;98864.08;131034;1254;107679;-80
2023/12/26 05:04:58;;;;;;;3.00;2.10;;;;;;;8.29;87.94;98850.70;131058;1256;106278;-79
2023/12/26 05:08:04;;;;;;;3.60;2.40;;;;;;;8.29;87.99;98847.77;130968;1255;107601;-80
2023/12/26 05:11:09;;;;;;;30.00;15.80;;;;;;;8.29;88.09;98841.39;131109;1251;108571;-79
2023/12/26 05:14:17;;;;;;;11.00;6.20;;;;;;;8.29;88.25;98842.72;131018;1253;107898;-80
2023/12/26 05:17:23;;;;;;;32.90;19.10;;;;;;;8.28;88.47;98837.32;131019;1254;107731;-79
2023/12/26 05:20:28;;;;;;;8.90;4.20;;;;;;;8.25;88.57;98828.15;131014;1254;106627;-80
2023/12/26 05:23:35;;;;;;;6.30;4.20;;;;;;;8.26;88.75;98825.63;131034;1255;106360;-79
2023/12/26 05:26:43;;;;;;;16.30;10.90;;;;;;;8.28;88.72;98824.16;131062;1257;106424;-80
2023/12/26 05:29:49;;;;;;;4.80;3.30;;;;;;;8.29;88.95;98824.79;131021;1252;108642;-79
2023/12/26 05:32:54;;;;;;;8.90;7.00;;;;;;;8.28;88.86;98824.35;131085;1251;108773;-78
2023/12/26 05:36:01;;;;;;;8.60;6.80;;;;;;;8.28;89.14;98823.67;130935;1254;107401;-79
2023/12/26 05:39:09;;;;;;;6.50;4.10;;;;;;;8.27;89.04;98812.40;130945;1256;107187;-80
2023/12/26 05:42:16;;;;;;;6.00;4.00;;;;;;;8.28;89.33;98807.35;130974;1251;107763;-81
2023/12/26 05:45:21;;;;;;;170.30;86.90;;;;;;;8.30;89.47;98801.79;130990;1250;108971;-80
2023/12/26 05:48:27;;;;;;;96.00;47.50;;;;;;;8.33;89.37;98795.92;130983;1250;107926;-79
2023/12/26 05:51:34;;;;;;;21.40;11.30;;;;;;;8.36;89.52;98786.98;130999;1257;107790;-79
2023/12/26 05:54:40;;;;;;;9.50;6.80;;;;;;;8.36;89.61;98787.27;131071;1251;108654;-79
2023/12/26 05:57:45;;;;;;;9.10;5.20;;;;;;;8.37;89.85;98783.08;130954;1251;109125;-79
2023/12/26 06:00:51;;;;;;;10.40;5.70;;;;;;;8.38;89.94;98780.71;130988;1254;106048;-79
2023/12/26 06:03:57;;;;;;;11.70;6.20;;;;;;;8.41;90.03;98770.42;131087;1251;106442;-79
2023/12/26 06:07:03;;;;;;;44.20;28.00;;;;;;;8.45;90.12;98767.88;131110;1253;106542;-79
2023/12/26 06:10:09;;;;;;;27.80;17.40;;;;;;;8.45;90.11;98757.92;131107;1251;107026;-80
2023/12/26 06:13:16;;;;;;;55.70;25.20;;;;;;;8.45;90.35;98753.17;131120;1253;107816;-79
2023/12/26 06:16:24;;;;;;;15.90;9.00;;;;;;;8.46;90.35;98749.38;131122;1253;107516;-80
2023/12/26 06:19:30;;;;;;;25.90;11.90;;;;;;;8.45;90.48;98742.09;131163;1257;108472;-79
2023/12/26 06:22:36;;;;;;;23.40;14.30;;;;;;;8.51;90.73;98736.88;131126;1253;110277;-79
2023/12/26 06:25:42;;;;;;;13.90;9.00;;;;;;;8.56;90.64;98728.36;131057;1253;108784;-79
2023/12/26 06:28:49;;;;;;;7.90;5.80;;;;;;;8.60;90.83;98724.48;131121;1250;108550;-82
2023/12/26 06:31:57;;;;;;;9.90;7.30;;;;;;;8.62;90.83;98718.54;131180;1251;106286;-81
2023/12/26 06:35:03;;;;;;;8.10;6.00;;;;;;;8.63;90.74;98717.86;131212;1253;106540;-81
2023/12/26 06:38:13;;;;;;;10.60;6.40;;;;;;;8.63;90.80;98717.86;131255;1263;108685;-81
2023/12/26 06:41:18;;;;;;;11.30;7.30;;;;;;;8.65;91.24;98709.95;131227;1253;108549;-79
2023/12/26 06:44:24;;;;;;;19.90;13.70;;;;;;;8.67;91.34;98705.94;131105;1253;108677;-80
2023/12/26 06:47:30;;;;;;;13.50;10.10;;;;;;;8.70;91.28;98704.34;131223;1253;108659;-79
2023/12/26 06:50:35;;;;;;;7.00;5.40;;;;;;;8.71;91.34;98696.35;131174;1253;107027;-80
2023/12/26 06:53:43;;;;;;;6.30;4.70;;;;;;;8.69;91.42;98695.78;131112;1248;107011;-80
2023/12/26 06:56:48;;;;;;;4.20;3.40;;;;;;;8.69;91.68;98691.44;131085;1253;107213;-80
2023/12/26 06:59:54;;;;;;;4.60;3.50;;;;;;;8.69;91.88;98694.39;131240;1263;107143;-79
2023/12/26 07:03:00;;;;;;;5.40;3.30;;;;;;;8.74;92.13;98693.49;131305;1250;107611;-79
2023/12/26 07:06:06;;;;;;;4.00;3.40;;;;;;;8.79;92.12;98688.75;131162;1251;107744;-80
2023/12/26 07:09:13;;;;;;;4.30;3.10;;;;;;;8.85;92.31;98690.35;131140;1252;108736;-79
2023/12/26 07:12:19;;;;;;;3.30;2.60;;;;;;;8.90;92.41;98688.42;131147;1253;108597;-80
2023/12/26 07:15:25;;;;;;;4.10;3.20;;;;;;;8.91;92.45;98684.36;131565;1253;108032;-80
2023/12/26 07:18:31;;;;;;;3.50;2.30;;;;;;;8.91;92.95;98685.62;131198;1251;106568;-80
2023/12/26 07:21:36;;;;;;;2.80;1.90;;;;;;;8.93;93.10;98686.79;131058;1250;107644;-80
2023/12/26 07:24:44;;;;;;;3.30;2.40;;;;;;;8.97;93.77;98685.39;131106;1253;106184;-79
2023/12/26 07:27:50;;;;;;;27.00;15.90;;;;;;;9.03;93.51;98681.38;131059;1253;109038;-79
2023/12/26 07:30:56;;;;;;;46.80;23.50;;;;;;;9.09;93.70;98684.91;131216;1257;108570;-80
2023/12/26 07:34:04;;;;;;;22.70;10.70;;;;;;;9.13;93.92;98688.17;131285;1252;106512;-79
2023/12/26 07:37:10;;;;;;;364.20;144.20;;;;;;;9.15;94.34;98690.42;131130;1253;107052;-80
2023/12/26 07:40:17;;;;;;;102.10;38.90;;;;;;;9.17;94.60;98690.30;131296;1250;107455;-81
2023/12/26 07:43:23;;;;;;;300.10;108.90;;;;;;;9.22;94.65;98689.06;131245;1253;108406;-82
2023/12/26 07:46:29;;;;;;;70.00;25.50;;;;;;;9.28;94.79;98690.34;131551;1253;107699;-79
2023/12/26 07:49:35;;;;;;;103.70;37.60;;;;;;;9.32;94.38;98694.90;131153;1251;108002;-79
2023/12/26 07:52:41;;;;;;;473.90;178.50;;;;;;;9.35;94.84;98695.05;131083;1250;106387;-80
2023/12/26 07:55:48;;;;;;;451.60;169.60;;;;;;;9.38;95.05;98696.64;131069;1253;108762;-81
2023/12/26 07:58:55;;;;;;;296.80;104.00;;;;;;;9.41;95.49;98693.80;131199;1253;108693;-79
2023/12/26 08:02:00;;;;;;;100.20;31.40;;;;;;;9.46;95.52;98693.63;131192;1253;106529;-79
2023/12/26 08:05:07;;;;;;;390.30;128.00;;;;;;;9.51;95.90;98693.89;131379;1253;109515;-81
2023/12/26 08:08:15;;;;;;;405.30;130.80;;;;;;;9.56;95.73;98695.98;131284;1249;108654;-81
2023/12/26 08:11:22;;;;;;;638.40;245.50;;;;;;;9.59;95.53;98696.17;131722;1253;108568;-81
2023/12/26 08:14:27;;;;;;;430.70;152.30;;;;;;;9.61;95.65;98694.52;131299;1253;107998;-81
2023/12/26 08:17:33;;;;;;;363.00;133.70;;;;;;;9.64;95.80;98697.34;131512;1253;106482;-81
2023/12/26 08:20:39;;;;;;;521.10;227.70;;;;;;;9.68;95.63;98696.70;131272;1249;106397;-79
2023/12/26 08:23:45;;;;;;;456.90;194.80;;;;;;;9.73;95.96;98697.78;131066;1253;109316;-80
2023/12/26 08:26:55;;;;;;;391.20;148.40;;;;;;;9.78;96.09;98696.70;131117;1253;107699;-79
2023/12/26 08:30:00;;;;;;;106.90;41.40;;;;;;;9.82;95.75;98699.37;131298;1253;107056;-84
2023/12/26 08:33:07;;;;;;;419.80;172.30;;;;;;;9.86;95.63;98700.39;131377;1253;108622;-84
2023/12/26 08:36:12;;;;;;;199.10;80.90;;;;;;;9.92;96.21;98699.30;131242;1253;108741;-84
2023/12/26 08:39:18;;;;;;;154.70;64.70;;;;;;;9.99;96.13;98699.81;131254;1251;108710;-83
2023/12/26 08:42:23;;;;;;;116.40;53.60;;;;;;;10.09;96.11;98698.11;131255;1252;108562;-84
2023/12/26 08:45:30;;;;;;;48.30;27.00;;;;;;;10.15;96.20;98698.36;131218;1250;108487;-84
2023/12/26 08:48:36;;;;;;;10.80;6.80;;;;;;;10.20;96.24;98701.02;131186;1250;108654;-84
2023/12/26 08:51:42;;;;;;;8.90;6.80;;;;;;;10.21;95.91;98707.02;131307;1253;107655;-84
2023/12/26 08:54:47;;;;;;;6.30;4.10;;;;;;;10.25;96.12;98706.08;131427;1253;106555;-83
2023/12/26 08:57:53;;;;;;;4.70;3.30;;;;;;;10.29;96.15;98711.83;131418;1253;106447;-85
2023/12/26 09:00:59;;;;;;;3.60;2.90;;;;;;;10.32;95.77;98710.20;131260;1251;107676;-84
2023/12/26 09:04:05;;;;;;;13.60;10.40;;;;;;;10.34;95.99;98711.02;131277;1253;107451;-84
2023/12/26 09:07:11;;;;;;;8.60;7.20;;;;;;;10.36;96.22;98713.14;131195;1253;107694;-83
2023/12/26 09:10:16;;;;;;;7.40;5.40;;;;;;;10.37;96.10;98721.50;131218;1253;108632;-83
2023/12/26 09:13:26;;;;;;;10.90;8.30;;;;;;;10.39;95.79;98730.55;131232;1253;107760;-83
2023/12/26 09:16:31;;;;;;;8.10;4.80;;;;;;;10.40;96.11;98727.39;131522;1249;106785;-84
2023/12/26 09:19:37;;;;;;;3.80;2.80;;;;;;;10.38;95.89;98730.04;131175;1253;110193;-85
2023/12/26 09:22:43;;;;;;;2.20;1.70;;;;;;;10.35;96.14;98732.98;131174;1251;108561;-85
2023/12/26 09:25:51;;;;;;;2.50;1.50;;;;;;;10.37;96.09;98742.34;131173;1250;107754;-84
2023/12/26 09:28:57;;;;;;;2.10;1.30;;;;;;;10.37;96.02;98741.55;131370;1249;108004;-85
2023/12/26 09:32:03;;;;;;;2.70;1.50;;;;;;;10.39;96.00;98740.98;131369;1253;107655;-86
2023/12/26 09:35:10;;;;;;;3.90;2.00;;;;;;;10.39;96.03;98745.56;131455;1253;108571;-86
2023/12/26 09:38:15;;;;;;;3.40;2.00;;;;;;;10.39;96.25;98750.92;131412;1252;108541;-86
2023/12/26 09:41:26;;;;;;;2.40;1.50;;;;;;;10.41;95.97;98755.54;131656;1253;106857;-85
2023/12/26 09:44:32;;;;;;;7.30;3.40;;;;;;;10.44;96.11;98752.13;132021;1249;106484;-85
2023/12/26 09:47:39;;;;;;;4.30;2.30;;;;;;;10.46;96.25;98750.17;131531;1253;106330;-85
2023/12/26 09:50:45;;;;;;;3.50;1.70;;;;;;;10.45;96.36;98749.69;131906;1253;107715;-85
2023/12/26 09:53:58;;;;;;;2.80;1.60;;;;;;;10.44;96.19;98755.81;131269;1253;107642;-86
2023/12/26 09:57:04;;;;;;;5.30;3.20;;;;;;;10.45;96.08;98754.35;131187;1253;107676;-86
2023/12/26 10:00:12;;;;;;;93.80;44.90;;;;;;;10.46;96.22;98766.79;131740;1253;108689;-85
2023/12/26 10:03:18;;;;;;;102.90;44.40;;;;;;;10.46;96.42;98770.73;131226;1253;106552;-85
2023/12/26 10:06:24;;;;;;;31.20;13.60;;;;;;;10.42;96.30;98783.86;131390;1249;106154;-85
2023/12/26 10:09:30;;;;;;;79.80;30.00;;;;;;;10.35;96.65;98794.67;131801;1253;108643;-84
2023/12/26 10:12:36;;;;;;;108.70;41.30;;;;;;;10.34;96.55;98794.55;131615;1253;108207;-85
2023/12/26 10:15:43;;;;;;;61.50;21.50;;;;;;;10.33;96.45;98798.20;131459;1253;108591;-85
2023/12/26 10:18:50;;;;;;;182.30;58.40;;;;;;;10.35;96.24;98797.14;131627;1253;107059;-85
2023/12/26 10:21:56;;;;;;;279.10;85.40;;;;;;;10.37;95.76;98800.39;131294;1251;106878;-84
2023/12/26 10:25:03;;;;;;;176.20;58.10;;;;;;;10.37;96.07;98805.21;131520;1253;108154;-84
2023/12/26 10:28:10;;;;;;;118.30;33.20;;;;;;;10.34;95.57;98808.75;131334;1251;107718;-84
2023/12/26 10:31:18;;;;;;;457.00;148.30;;;;;;;10.33;95.73;98803.11;131439;1250;108332;-83
2023/12/26 10:34:23;;;;;;;481.10;152.70;;;;;;;10.33;95.43;98806.10;131416;1254;187948;-84
2023/12/26 10:37:29;;;;;;;70.90;22.70;;;;;;;10.31;95.76;98806.94;131468;1253;106558;-84
2023/12/26 10:40:35;;;;;;;217.80;65.10;;;;;;;10.30;95.36;98804.16;131389;1253;106572;-84
2023/12/26 10:43:41;;;;;;;643.70;224.10;;;;;;;10.30;95.62;98806.80;131256;1251;106975;-84
2023/12/26 10:46:49;;;;;;;385.10;106.70;;;;;;;10.32;95.35;98805.98;131388;1253;107685;-84
2023/12/26 10:49:57;;;;;;;566.10;187.80;;;;;;;10.32;95.23;98807.40;131522;1251;108645;-84
2023/12/26 10:53:15;;;;;;;418.60;136.90;;;;;;;10.31;94.92;98808.16;131394;1249;108380;-84
2023/12/26 10:56:24;;;;;;;280.90;83.30;;;;;;;10.26;94.80;98805.14;131487;1253;108660;-84
2023/12/26 13:51:51;;;;;;;4.60;3.20;;;;;;;9.42;86.74;99021.70;132205;1253;107642;-87
2023/12/26 13:55:31;;;;;;;3.60;2.20;;;;;;;9.37;86.36;99024.83;132133;1259;107296;-86
2023/12/26 13:58:37;;;;;;;3.20;2.10;;;;;;;9.29;86.45;99034.78;131591;1250;106402;-85
2023/12/26 14:01:42;;;;;;;3.00;1.90;;;;;;;9.22;86.70;99046.70;131770;1260;106429;-86
2023/12/26 14:04:48;;;;;;;4.10;1.90;;;;;;;9.20;86.47;99050.55;131689;1253;106742;-87
2023/12/26 14:08:28;;;;;;;5.40;2.10;;;;;;;9.22;86.90;99058.27;131585;1258;107896;-86
2023/12/26 14:12:13;;;;;;;2.80;1.70;;;;;;;9.26;86.05;99062.24;131276;1257;108487;-85
2023/12/26 14:15:55;;;;;;;3.30;1.80;;;;;;;9.32;85.99;99073.70;131603;1262;109807;-86
2023/12/26 14:19:35;;;;;;;3.60;2.10;;;;;;;9.33;86.99;99076.02;132051;1250;107372;-88
2023/12/26 14:23:19;;;;;;;8.60;5.20;;;;;;;9.26;87.08;99080.95;131838;1251;107577;-86
2023/12/26 14:26:27;;;;;;;123.40;51.10;;;;;;;9.18;88.11;99090.83;131536;1253;107660;-85
2023/12/26 14:29:40;;;;;;;131.20;56.20;;;;;;;9.18;88.75;99102.00;131525;1254;107309;-85
2023/12/26 14:32:45;;;;;;;385.40;162.40;;;;;;;9.18;88.85;99104.63;131690;1253;107712;-86
2023/12/26 14:35:53;;;;;;;495.80;205.70;;;;;;;9.19;89.08;99109.55;131736;1260;107946;-84
2023/12/26 14:38:59;;;;;;;300.20;106.10;;;;;;;9.15;88.97;99106.94;131852;1263;106751;-84
2023/12/26 14:42:05;;;;;;;117.30;42.90;;;;;;;9.12;89.10;99111.73;131499;1253;106561;-85
2023/12/26 14:45:11;;;;;;;186.90;64.50;;;;;;;9.11;88.83;99109.92;132149;1251;107692;-86
2023/12/26 14:48:16;;;;;;;361.70;132.80;;;;;;;9.10;88.89;99116.70;131724;1251;107942;-87
2023/12/26 14:51:56;;;;;;;461.70;196.40;;;;;;;9.11;89.03;99120.23;131890;1254;107585;-88
2023/12/26 14:55:03;;;;;;;231.70;98.80;;;;;;;9.13;88.84;99123.55;131828;1253;107578;-86
2023/12/26 14:58:43;;;;;;;203.90;93.00;;;;;;;9.12;89.29;99121.56;131750;1251;107511;-87
2023/12/26 15:01:49;;;;;;;81.10;41.60;;;;;;;9.12;89.26;99119.55;132224;1253;106723;-85
2023/12/26 15:04:55;;;;;;;41.50;21.10;;;;;;;9.12;89.09;99131.77;131935;1263;106475;-85
2023/12/26 15:08:00;;;;;;;19.00;10.50;;;;;;;9.07;89.02;99139.98;132056;1250;107579;-89
2023/12/26 15:11:13;;;;;;;17.60;10.30;;;;;;;8.93;89.89;99157.63;132343;1253;107096;-85
2023/12/26 15:14:19;;;;;;;38.90;22.70;;;;;;;8.81;90.57;99160.40;131516;1254;107552;-85
2023/12/26 15:17:24;;;;;;;43.90;23.90;;;;;;;8.75;90.91;99175.41;131751;1251;108568;-85
2023/12/26 15:20:31;;;;;;;19.00;10.10;;;;;;;8.67;90.90;99176.16;131507;1253;107443;-86
2023/12/26 15:23:36;;;;;;;26.30;16.10;;;;;;;8.53;90.08;99173.07;131711;1254;107546;-86
2023/12/26 15:26:43;;;;;;;34.20;21.40;;;;;;;8.47;90.26;99178.65;131697;1251;105921;-84
2023/12/26 15:29:49;;;;;;;17.90;10.60;;;;;;;8.43;90.03;99185.27;131805;1251;108556;-87
2023/12/26 15:32:55;;;;;;;14.50;9.20;;;;;;;8.38;89.70;99188.17;131398;1254;107018;-86
2023/12/26 15:36:00;;;;;;;22.20;16.40;;;;;;;8.30;89.35;99191.36;131986;1253;106280;-84
2023/12/26 15:39:06;;;;;;;8.70;5.10;;;;;;;8.24;89.72;99192.38;131811;1251;108676;-84
2023/12/26 15:42:43;;;;;;;12.60;7.50;;;;;;;8.25;89.62;99193.85;133104;1247;106776;-85
2023/12/26 15:45:49;;;;;;;19.60;11.00;;;;;;;8.28;89.55;99192.70;132590;1253;107697;-83
2023/12/26 15:48:57;;;;;;;342.90;137.10;;;;;;;8.33;89.36;99202.29;132052;1253;107850;-86
2023/12/26 15:52:03;;;;;;;98.30;33.80;;;;;;;8.36;88.78;99206.86;132960;1252;110179;-86
2023/12/26 15:55:09;;;;;;;526.50;225.30;;;;;;;8.34;88.81;99204.46;131971;1253;107673;-85
2023/12/26 15:58:15;;;;;;;525.50;215.80;;;;;;;8.34;88.68;99204.27;133737;1250;106985;-86
2023/12/26 16:01:21;;;;;;;382.70;145.80;;;;;;;8.35;88.95;99206.13;132225;1248;107665;-86
2023/12/26 16:04:27;;;;;;;327.80;116.60;;;;;;;8.37;88.89;99213.45;134573;1249;107749;-85
2023/12/26 16:08:27;;;;;;;143.40;53.30;;;;;;;8.44;88.87;99220.09;135673;1246;107011;-88
2023/12/26 16:11:35;;;;;;;240.40;96.90;;;;;;;8.52;88.65;99219.68;135481;1250;106972;-87
2023/12/26 16:14:43;;;;;;;535.70;274.70;;;;;;;8.60;88.25;99222.26;135250;1250;108672;-84
2023/12/26 16:17:48;;;;;;;188.10;73.30;;;;;;;8.63;87.94;99224.55;135599;1249;107506;-90
2023/12/26 16:20:54;;;;;;;119.70;47.50;;;;;;;8.63;87.69;99226.83;135523;1250;108065;-85
2023/12/26 16:24:00;;;;;;;239.30;100.50;;;;;;;8.60;87.53;99223.31;135495;1251;107770;-83
2023/12/26 16:27:06;;;;;;;129.40;53.10;;;;;;;8.54;87.06;99218.96;135520;1251;108375;-83
2023/12/26 16:30:13;;;;;;;134.40;63.00;;;;;;;8.46;86.59;99227.13;135560;1251;107163;-83
2023/12/26 16:33:18;;;;;;;75.60;35.10;;;;;;;8.41;86.85;99226.20;135530;1250;107784;-83
2023/12/26 16:36:24;;;;;;;89.40;44.80;;;;;;;8.41;86.72;99231.70;135621;1250;107545;-84
2023/12/26 16:39:30;;;;;;;63.30;34.20;;;;;;;8.39;86.21;99237.05;135594;1250;108277;-83
2023/12/26 16:42:35;;;;;;;120.80;67.80;;;;;;;8.36;85.71;99245.86;135572;1249;107643;-84
2023/12/26 16:45:41;;;;;;;22.10;10.90;;;;;;;8.36;85.98;99250.67;135496;1250;107736;-84
2023/12/26 16:48:47;;;;;;;11.80;6.90;;;;;;;8.35;85.31;99252.58;135463;1251;106411;-83
2023/12/26 16:51:53;;;;;;;12.90;8.10;;;;;;;8.30;84.96;99259.13;135575;1251;106493;-84
2023/12/26 16:54:58;;;;;;;29.70;16.90;;;;;;;8.25;83.76;99261.69;135610;1249;107813;-84
2023/12/26 16:58:04;;;;;;;20.70;14.00;;;;;;;8.22;83.90;99262.61;135484;1251;107798;-84
2023/12/26 17:01:10;;;;;;;5.50;2.80;;;;;;;8.25;83.44;99271.09;135466;1253;107426;-83
2023/12/26 17:04:16;;;;;;;8.20;4.60;;;;;;;8.26;82.36;99277.00;135461;1251;106248;-83
2023/12/26 17:07:22;;;;;;;12.60;8.90;;;;;;;8.26;82.74;99278.60;135417;1250;108667;-85
2023/12/26 17:10:30;;;;;;;8.40;3.70;;;;;;;8.29;82.82;99275.48;135516;1251;108387;-83